Country
Station

 

Weather  for  Seoul/Kimp'O International Airport  -  Korea (Republic of)    Korea (Republic of)

  
14 °C (57 °F)
    
 
 

Current METAR for Seoul/Kimp'O International Airport is :

RKSS 211500Z 17004KT CAVOK 14/11 Q1006 NOSIG

 

This is a report for Seoul/Kimp'O International Airport - Korea (Republic of).
 
The report was made 49 minutes ago, at 15:00 UTC .
The wind was blowing at a speed of 2.1 meters per second (4.6 miles per hour) from south (170°).
 
The temperature was 14 °C (57 °F), with a dew-point at 11 °C (52 °F).
The atmospheric pressure was 1006 hPa (29.71 inHg).
The relative humidity was 82.1%.
 
There were no clouds below 1500 meter (5000 feet) and no cumulonimbus clouds.
 
The overall visibility was greater than 10 kilometers (6.2 miles).
 

 
 
 
 

Country :   A   B   C   D   E   F   G   H   I   J   K   L   M   N   O   P   Q   R   S   T   U   V   W   Y   Z

 

Site Info  |  Disclaimer  |  Credits  |  Privacy
Contact us  |  Add to favorites
© 2013-2019 METARs - All rights reserved